sensor_id;sensor_type;location;lat;lon;timestamp;temperature;humidity
12156;DHT22;6141;49.092;8.516;2023-01-24T00:01:18;4.80;55.00
12156;DHT22;6141;49.092;8.516;2023-01-24T00:03:47;4.90;54.30
12156;DHT22;6141;49.092;8.516;2023-01-24T00:06:15;4.90;54.20
12156;DHT22;6141;49.092;8.516;2023-01-24T00:08:44;4.90;54.40
12156;DHT22;6141;49.092;8.516;2023-01-24T00:11:12;4.90;54.40
12156;DHT22;6141;49.092;8.516;2023-01-24T00:13:41;4.90;53.90
12156;DHT22;6141;49.092;8.516;2023-01-24T00:16:13;4.80;54.10
12156;DHT22;6141;49.092;8.516;2023-01-24T00:18:42;4.80;54.60
12156;DHT22;6141;49.092;8.516;2023-01-24T00:21:13;4.80;54.60
12156;DHT22;6141;49.092;8.516;2023-01-24T00:23:47;5.00;54.70
12156;DHT22;6141;49.092;8.516;2023-01-24T00:26:16;5.00;53.70
12156;DHT22;6141;49.092;8.516;2023-01-24T00:28:46;4.90;54.10
12156;DHT22;6141;49.092;8.516;2023-01-24T00:31:16;5.10;53.30
12156;DHT22;6141;49.092;8.516;2023-01-24T00:33:44;5.20;53.30
12156;DHT22;6141;49.092;8.516;2023-01-24T00:36:12;5.20;53.30
12156;DHT22;6141;49.092;8.516;2023-01-24T00:38:41;5.20;53.30
12156;DHT22;6141;49.092;8.516;2023-01-24T00:41:09;5.30;52.40
12156;DHT22;6141;49.092;8.516;2023-01-24T00:43:37;5.30;52.40
12156;DHT22;6141;49.092;8.516;2023-01-24T00:46:07;5.20;53.20
12156;DHT22;6141;49.092;8.516;2023-01-24T00:48:37;5.10;53.20
12156;DHT22;6141;49.092;8.516;2023-01-24T00:51:06;5.00;53.10
12156;DHT22;6141;49.092;8.516;2023-01-24T00:53:34;5.20;53.40
12156;DHT22;6141;49.092;8.516;2023-01-24T00:56:03;5.10;53.20
12156;DHT22;6141;49.092;8.516;2023-01-24T00:58:31;5.10;53.20
12156;DHT22;6141;49.092;8.516;2023-01-24T01:01:00;5.00;53.10
12156;DHT22;6141;49.092;8.516;2023-01-24T01:03:30;5.00;53.30
12156;DHT22;6141;49.092;8.516;2023-01-24T01:06:03;5.00;53.20
12156;DHT22;6141;49.092;8.516;2023-01-24T01:08:32;5.10;53.20
12156;DHT22;6141;49.092;8.516;2023-01-24T01:11:00;5.00;53.20
12156;DHT22;6141;49.092;8.516;2023-01-24T01:13:29;5.00;53.20
12156;DHT22;6141;49.092;8.516;2023-01-24T01:16:02;5.00;53.20
12156;DHT22;6141;49.092;8.516;2023-01-24T01:18:30;5.00;53.20
12156;DHT22;6141;49.092;8.516;2023-01-24T01:20:59;4.90;53.00
12156;DHT22;6141;49.092;8.516;2023-01-24T01:23:29;4.80;53.00
12156;DHT22;6141;49.092;8.516;2023-01-24T01:26:01;4.80;53.40
12156;DHT22;6141;49.092;8.516;2023-01-24T01:28:30;4.80;53.20
12156;DHT22;6141;49.092;8.516;2023-01-24T01:30:59;4.90;53.20
12156;DHT22;6141;49.092;8.516;2023-01-24T01:33:27;4.90;53.80
12156;DHT22;6141;49.092;8.516;2023-01-24T01:35:55;4.90;53.10
12156;DHT22;6141;49.092;8.516;2023-01-24T01:38:24;4.90;53.10
12156;DHT22;6141;49.092;8.516;2023-01-24T01:40:56;5.00;53.20
12156;DHT22;6141;49.092;8.516;2023-01-24T01:43:25;4.90;53.10
12156;DHT22;6141;49.092;8.516;2023-01-24T01:45:55;4.80;53.00
12156;DHT22;6141;49.092;8.516;2023-01-24T01:48:33;4.80;53.00
12156;DHT22;6141;49.092;8.516;2023-01-24T01:51:06;4.80;53.80
12156;DHT22;6141;49.092;8.516;2023-01-24T01:53:41;4.80;53.40
12156;DHT22;6141;49.092;8.516;2023-01-24T01:56:18;4.90;53.10
12156;DHT22;6141;49.092;8.516;2023-01-24T01:58:48;4.90;53.00
12156;DHT22;6141;49.092;8.516;2023-01-24T02:01:16;4.90;53.10
12156;DHT22;6141;49.092;8.516;2023-01-24T02:03:53;4.90;53.00
12156;DHT22;6141;49.092;8.516;2023-01-24T02:06:33;5.00;53.20
12156;DHT22;6141;49.092;8.516;2023-01-24T02:09:09;4.90;53.10
12156;DHT22;6141;49.092;8.516;2023-01-24T02:11:39;4.80;53.30
12156;DHT22;6141;49.092;8.516;2023-01-24T02:14:12;4.90;53.60
12156;DHT22;6141;49.092;8.516;2023-01-24T02:17:00;4.90;53.40
12156;DHT22;6141;49.092;8.516;2023-01-24T02:19:45;5.00;53.20
12156;DHT22;6141;49.092;8.516;2023-01-24T02:22:18;5.00;53.20
12156;DHT22;6141;49.092;8.516;2023-01-24T02:24:58;4.90;53.60
12156;DHT22;6141;49.092;8.516;2023-01-24T02:27:29;4.90;53.50
12156;DHT22;6141;49.092;8.516;2023-01-24T02:29:58;5.00;53.20
12156;DHT22;6141;49.092;8.516;2023-01-24T02:32:26;5.00;53.10
12156;DHT22;6141;49.092;8.516;2023-01-24T02:34:55;5.00;53.10
12156;DHT22;6141;49.092;8.516;2023-01-24T02:37:25;5.10;53.30
12156;DHT22;6141;49.092;8.516;2023-01-24T02:39:57;5.10;53.20
12156;DHT22;6141;49.092;8.516;2023-01-24T02:42:33;5.00;53.10
12156;DHT22;6141;49.092;8.516;2023-01-24T02:45:07;5.00;53.30
12156;DHT22;6141;49.092;8.516;2023-01-24T02:47:41;5.10;53.20
12156;DHT22;6141;49.092;8.516;2023-01-24T02:50:11;5.10;53.30
12156;DHT22;6141;49.092;8.516;2023-01-24T02:52:39;5.20;53.30
12156;DHT22;6141;49.092;8.516;2023-01-24T02:55:25;5.10;53.20
12156;DHT22;6141;49.092;8.516;2023-01-24T02:57:57;5.20;53.30
12156;DHT22;6141;49.092;8.516;2023-01-24T03:00:39;5.10;53.30
12156;DHT22;6141;49.092;8.516;2023-01-24T03:03:10;5.00;53.10
12156;DHT22;6141;49.092;8.516;2023-01-24T03:05:39;4.80;54.00
12156;DHT22;6141;49.092;8.516;2023-01-24T03:08:16;4.80;54.60
12156;DHT22;6141;49.092;8.516;2023-01-24T03:10:45;4.90;54.50
12156;DHT22;6141;49.092;8.516;2023-01-24T03:13:17;5.00;54.10
12156;DHT22;6141;49.092;8.516;2023-01-24T03:16:05;4.90;54.60
12156;DHT22;6141;49.092;8.516;2023-01-24T03:18:51;4.90;54.20
12156;DHT22;6141;49.092;8.516;2023-01-24T03:21:38;4.90;54.30
12156;DHT22;6141;49.092;8.516;2023-01-24T03:24:24;4.90;54.00
12156;DHT22;6141;49.092;8.516;2023-01-24T03:27:11;4.90;53.90
12156;DHT22;6141;49.092;8.516;2023-01-24T03:30:00;4.90;54.20
12156;DHT22;6141;49.092;8.516;2023-01-24T03:32:46;4.90;54.40
12156;DHT22;6141;49.092;8.516;2023-01-24T03:35:33;4.90;53.70
12156;DHT22;6141;49.092;8.516;2023-01-24T03:38:01;4.90;53.90
12156;DHT22;6141;49.092;8.516;2023-01-24T03:40:51;4.90;53.90
12156;DHT22;6141;49.092;8.516;2023-01-24T03:43:20;4.80;54.40
12156;DHT22;6141;49.092;8.516;2023-01-24T03:45:52;4.80;54.30
12156;DHT22;6141;49.092;8.516;2023-01-24T03:48:37;4.80;54.60
12156;DHT22;6141;49.092;8.516;2023-01-24T03:51:08;4.80;54.60
12156;DHT22;6141;49.092;8.516;2023-01-24T03:53:54;4.80;54.70
12156;DHT22;6141;49.092;8.516;2023-01-24T03:56:28;4.90;54.20
12156;DHT22;6141;49.092;8.516;2023-01-24T03:58:59;4.90;54.60
12156;DHT22;6141;49.092;8.516;2023-01-24T04:01:32;4.80;54.80
12156;DHT22;6141;49.092;8.516;2023-01-24T04:04:08;4.70;54.90
12156;DHT22;6141;49.092;8.516;2023-01-24T04:06:38;4.70;55.20
12156;DHT22;6141;49.092;8.516;2023-01-24T04:09:10;4.70;55.40
12156;DHT22;6141;49.092;8.516;2023-01-24T04:11:39;4.80;55.10
12156;DHT22;6141;49.092;8.516;2023-01-24T04:14:14;4.80;55.50
12156;DHT22;6141;49.092;8.516;2023-01-24T04:16:56;4.90;54.50
12156;DHT22;6141;49.092;8.516;2023-01-24T04:19:30;4.90;54.60
12156;DHT22;6141;49.092;8.516;2023-01-24T04:21:58;4.80;54.40
12156;DHT22;6141;49.092;8.516;2023-01-24T04:24:27;4.90;54.60
12156;DHT22;6141;49.092;8.516;2023-01-24T04:26:55;4.90;54.50
12156;DHT22;6141;49.092;8.516;2023-01-24T04:29:28;4.90;54.60
12156;DHT22;6141;49.092;8.516;2023-01-24T04:32:00;4.80;54.60
12156;DHT22;6141;49.092;8.516;2023-01-24T04:34:39;4.90;54.60
12156;DHT22;6141;49.092;8.516;2023-01-24T04:37:15;4.90;54.30
12156;DHT22;6141;49.092;8.516;2023-01-24T04:39:45;5.00;54.20
12156;DHT22;6141;49.092;8.516;2023-01-24T04:42:16;5.10;53.20
12156;DHT22;6141;49.092;8.516;2023-01-24T04:44:45;5.20;53.30
12156;DHT22;6141;49.092;8.516;2023-01-24T04:47:15;5.20;53.30
12156;DHT22;6141;49.092;8.516;2023-01-24T04:49:43;5.40;53.50
12156;DHT22;6141;49.092;8.516;2023-01-24T04:52:17;5.20;53.30
12156;DHT22;6141;49.092;8.516;2023-01-24T04:54:56;5.20;53.30
12156;DHT22;6141;49.092;8.516;2023-01-24T04:57:24;5.20;53.30
12156;DHT22;6141;49.092;8.516;2023-01-24T04:59:53;5.20;53.30
12156;DHT22;6141;49.092;8.516;2023-01-24T05:02:25;5.20;53.30
12156;DHT22;6141;49.092;8.516;2023-01-24T05:04:53;5.30;53.40
12156;DHT22;6141;49.092;8.516;2023-01-24T05:07:21;5.30;52.70
12156;DHT22;6141;49.092;8.516;2023-01-24T05:09:57;5.30;52.90
12156;DHT22;6141;49.092;8.516;2023-01-24T05:12:27;5.30;53.10
12156;DHT22;6141;49.092;8.516;2023-01-24T05:14:59;5.30;52.70
12156;DHT22;6141;49.092;8.516;2023-01-24T05:17:29;5.30;52.40
12156;DHT22;6141;49.092;8.516;2023-01-24T05:19:58;5.30;52.50
12156;DHT22;6141;49.092;8.516;2023-01-24T05:22:26;5.30;53.20
12156;DHT22;6141;49.092;8.516;2023-01-24T05:24:55;5.30;52.70
12156;DHT22;6141;49.092;8.516;2023-01-24T05:27:23;5.30;52.30
12156;DHT22;6141;49.092;8.516;2023-01-24T05:29:57;5.40;52.20
12156;DHT22;6141;49.092;8.516;2023-01-24T05:32:26;5.40;51.80
12156;DHT22;6141;49.092;8.516;2023-01-24T05:34:55;5.50;51.70
12156;DHT22;6141;49.092;8.516;2023-01-24T05:37:24;5.50;51.80
12156;DHT22;6141;49.092;8.516;2023-01-24T05:39:53;5.40;51.80
12156;DHT22;6141;49.092;8.516;2023-01-24T05:42:21;5.50;51.70
12156;DHT22;6141;49.092;8.516;2023-01-24T05:44:53;5.50;52.40
12156;DHT22;6141;49.092;8.516;2023-01-24T05:47:21;5.50;51.60
12156;DHT22;6141;49.092;8.516;2023-01-24T05:49:50;5.50;51.90
12156;DHT22;6141;49.092;8.516;2023-01-24T05:52:21;5.50;51.70
12156;DHT22;6141;49.092;8.516;2023-01-24T05:54:51;5.50;51.50
12156;DHT22;6141;49.092;8.516;2023-01-24T05:57:32;5.50;51.50
12156;DHT22;6141;49.092;8.516;2023-01-24T06:00:10;5.50;51.40
12156;DHT22;6141;49.092;8.516;2023-01-24T06:02:46;5.50;51.60
12156;DHT22;6141;49.092;8.516;2023-01-24T06:05:14;5.50;51.50
12156;DHT22;6141;49.092;8.516;2023-01-24T06:07:44;5.50;51.80
12156;DHT22;6141;49.092;8.516;2023-01-24T06:10:13;5.50;51.70
12156;DHT22;6141;49.092;8.516;2023-01-24T06:12:53;5.30;51.90
12156;DHT22;6141;49.092;8.516;2023-01-24T06:15:21;5.30;52.80
12156;DHT22;6141;49.092;8.516;2023-01-24T06:17:49;5.40;52.60
12156;DHT22;6141;49.092;8.516;2023-01-24T06:20:18;5.40;52.10
12156;DHT22;6141;49.092;8.516;2023-01-24T06:22:52;5.50;52.00
12156;DHT22;6141;49.092;8.516;2023-01-24T06:25:24;5.50;51.60
12156;DHT22;6141;49.092;8.516;2023-01-24T06:27:53;5.50;52.20
12156;DHT22;6141;49.092;8.516;2023-01-24T06:30:21;5.50;51.50
12156;DHT22;6141;49.092;8.516;2023-01-24T06:33:08;5.50;51.60
12156;DHT22;6141;49.092;8.516;2023-01-24T06:35:47;5.50;51.90
12156;DHT22;6141;49.092;8.516;2023-01-24T06:38:20;5.40;51.90
12156;DHT22;6141;49.092;8.516;2023-01-24T06:40:55;5.50;51.90
12156;DHT22;6141;49.092;8.516;2023-01-24T06:43:24;5.50;51.80
12156;DHT22;6141;49.092;8.516;2023-01-24T06:45:52;5.60;51.70
12156;DHT22;6141;49.092;8.516;2023-01-24T06:48:21;5.50;51.60
12156;DHT22;6141;49.092;8.516;2023-01-24T06:50:49;5.50;51.70
12156;DHT22;6141;49.092;8.516;2023-01-24T06:53:19;5.40;51.90
12156;DHT22;6141;49.092;8.516;2023-01-24T06:55:47;5.40;52.00
12156;DHT22;6141;49.092;8.516;2023-01-24T06:58:15;5.40;52.10
12156;DHT22;6141;49.092;8.516;2023-01-24T07:00:43;5.30;52.20
12156;DHT22;6141;49.092;8.516;2023-01-24T07:03:12;5.40;52.20
12156;DHT22;6141;49.092;8.516;2023-01-24T07:05:40;5.40;52.30
12156;DHT22;6141;49.092;8.516;2023-01-24T07:08:08;5.30;52.30
12156;DHT22;6141;49.092;8.516;2023-01-24T07:10:38;5.30;52.30
12156;DHT22;6141;49.092;8.516;2023-01-24T07:13:06;5.40;52.30
12156;DHT22;6141;49.092;8.516;2023-01-24T07:15:35;5.30;52.80
12156;DHT22;6141;49.092;8.516;2023-01-24T07:18:08;5.30;53.00
12156;DHT22;6141;49.092;8.516;2023-01-24T07:20:36;5.30;53.50
12156;DHT22;6141;49.092;8.516;2023-01-24T07:23:07;5.30;53.50
12156;DHT22;6141;49.092;8.516;2023-01-24T07:25:42;5.20;53.10
12156;DHT22;6141;49.092;8.516;2023-01-24T07:28:10;5.30;53.20
12156;DHT22;6141;49.092;8.516;2023-01-24T07:30:39;5.20;53.30
12156;DHT22;6141;49.092;8.516;2023-01-24T07:33:08;5.20;53.30
12156;DHT22;6141;49.092;8.516;2023-01-24T07:35:36;5.40;53.40
12156;DHT22;6141;49.092;8.516;2023-01-24T07:38:05;5.40;54.20
12156;DHT22;6141;49.092;8.516;2023-01-24T07:40:33;5.30;53.10
12156;DHT22;6141;49.092;8.516;2023-01-24T07:43:03;5.30;52.90
12156;DHT22;6141;49.092;8.516;2023-01-24T07:45:33;5.30;53.60
12156;DHT22;6141;49.092;8.516;2023-01-24T07:48:06;5.30;53.50
12156;DHT22;6141;49.092;8.516;2023-01-24T07:50:34;5.30;53.40
12156;DHT22;6141;49.092;8.516;2023-01-24T07:53:03;5.30;52.80
12156;DHT22;6141;49.092;8.516;2023-01-24T07:55:32;5.40;53.10
12156;DHT22;6141;49.092;8.516;2023-01-24T07:58:02;5.40;53.00
12156;DHT22;6141;49.092;8.516;2023-01-24T08:00:31;5.40;53.10
12156;DHT22;6141;49.092;8.516;2023-01-24T08:02:59;5.40;53.50
12156;DHT22;6141;49.092;8.516;2023-01-24T08:05:27;5.40;53.30
12156;DHT22;6141;49.092;8.516;2023-01-24T08:07:56;5.30;53.20
12156;DHT22;6141;49.092;8.516;2023-01-24T08:10:24;5.30;53.40
12156;DHT22;6141;49.092;8.516;2023-01-24T08:12:53;5.20;53.30
12156;DHT22;6141;49.092;8.516;2023-01-24T08:15:25;5.40;53.50
12156;DHT22;6141;49.092;8.516;2023-01-24T08:17:56;5.30;53.50
12156;DHT22;6141;49.092;8.516;2023-01-24T08:20:24;5.30;53.50
12156;DHT22;6141;49.092;8.516;2023-01-24T08:22:54;5.40;53.50
12156;DHT22;6141;49.092;8.516;2023-01-24T08:25:24;5.30;53.10
12156;DHT22;6141;49.092;8.516;2023-01-24T08:27:53;5.50;53.10
12156;DHT22;6141;49.092;8.516;2023-01-24T08:30:22;5.50;52.80
12156;DHT22;6141;49.092;8.516;2023-01-24T08:33:00;5.50;52.70
12156;DHT22;6141;49.092;8.516;2023-01-24T08:35:29;5.50;52.70
12156;DHT22;6141;49.092;8.516;2023-01-24T08:37:57;5.60;52.70
12156;DHT22;6141;49.092;8.516;2023-01-24T08:40:26;5.60;52.50
12156;DHT22;6141;49.092;8.516;2023-01-24T08:43:05;5.60;52.20
12156;DHT22;6141;49.092;8.516;2023-01-24T08:45:33;5.50;52.50
12156;DHT22;6141;49.092;8.516;2023-01-24T08:48:03;5.50;52.80
12156;DHT22;6141;49.092;8.516;2023-01-24T08:50:32;5.50;53.40
12156;DHT22;6141;49.092;8.516;2023-01-24T08:53:00;5.40;53.50
12156;DHT22;6141;49.092;8.516;2023-01-24T08:55:28;5.50;53.60
12156;DHT22;6141;49.092;8.516;2023-01-24T08:58:00;5.50;53.40
12156;DHT22;6141;49.092;8.516;2023-01-24T09:00:28;5.50;53.00
12156;DHT22;6141;49.092;8.516;2023-01-24T09:02:57;5.50;53.60
12156;DHT22;6141;49.092;8.516;2023-01-24T09:05:29;5.50;53.10
12156;DHT22;6141;49.092;8.516;2023-01-24T09:07:58;5.40;53.50
12156;DHT22;6141;49.092;8.516;2023-01-24T09:10:27;5.40;53.50
12156;DHT22;6141;49.092;8.516;2023-01-24T09:12:55;5.20;53.30
12156;DHT22;6141;49.092;8.516;2023-01-24T09:15:24;5.20;53.40
12156;DHT22;6141;49.092;8.516;2023-01-24T09:17:52;5.20;53.30
12156;DHT22;6141;49.092;8.516;2023-01-24T09:20:20;5.30;53.40
12156;DHT22;6141;49.092;8.516;2023-01-24T09:22:50;5.50;53.60
12156;DHT22;6141;49.092;8.516;2023-01-24T09:25:18;5.50;52.80
12156;DHT22;6141;49.092;8.516;2023-01-24T09:27:52;5.50;52.60
12156;DHT22;6141;49.092;8.516;2023-01-24T09:30:21;5.40;53.50
12156;DHT22;6141;49.092;8.516;2023-01-24T09:32:50;5.50;53.60
12156;DHT22;6141;49.092;8.516;2023-01-24T09:35:18;5.50;53.60
12156;DHT22;6141;49.092;8.516;2023-01-24T09:37:47;5.40;53.50
12156;DHT22;6141;49.092;8.516;2023-01-24T09:40:21;5.60;53.70
12156;DHT22;6141;49.092;8.516;2023-01-24T09:42:58;5.60;53.10
12156;DHT22;6141;49.092;8.516;2023-01-24T09:45:30;5.50;53.60
12156;DHT22;6141;49.092;8.516;2023-01-24T09:48:02;5.50;53.60
12156;DHT22;6141;49.092;8.516;2023-01-24T09:50:37;5.40;54.00
12156;DHT22;6141;49.092;8.516;2023-01-24T09:53:14;5.40;53.50
12156;DHT22;6141;49.092;8.516;2023-01-24T09:55:46;5.40;53.50
12156;DHT22;6141;49.092;8.516;2023-01-24T09:58:24;5.50;53.60
12156;DHT22;6141;49.092;8.516;2023-01-24T10:01:03;5.50;53.60
12156;DHT22;6141;49.092;8.516;2023-01-24T10:03:34;5.50;53.60
12156;DHT22;6141;49.092;8.516;2023-01-24T10:06:06;5.50;53.60
12156;DHT22;6141;49.092;8.516;2023-01-24T10:08:40;5.60;53.70
12156;DHT22;6141;49.092;8.516;2023-01-24T10:11:22;5.70;53.50
12156;DHT22;6141;49.092;8.516;2023-01-24T10:14:02;5.80;52.50
12156;DHT22;6141;49.092;8.516;2023-01-24T10:22:56;5.60;53.70
12156;DHT22;6141;49.092;8.516;2023-01-24T10:25:31;5.50;53.60
12156;DHT22;6141;49.092;8.516;2023-01-24T10:28:03;5.60;53.70
12156;DHT22;6141;49.092;8.516;2023-01-24T10:30:41;5.70;53.80
12156;DHT22;6141;49.092;8.516;2023-01-24T10:33:14;5.80;53.90
12156;DHT22;6141;49.092;8.516;2023-01-24T10:35:52;5.80;52.20
12156;DHT22;6141;49.092;8.516;2023-01-24T10:38:21;5.80;52.80
12156;DHT22;6141;49.092;8.516;2023-01-24T10:40:52;5.80;52.70
12156;DHT22;6141;49.092;8.516;2023-01-24T10:43:25;5.90;52.70
12156;DHT22;6141;49.092;8.516;2023-01-24T10:46:08;5.90;52.60
12156;DHT22;6141;49.092;8.516;2023-01-24T10:48:42;5.90;52.50
12156;DHT22;6141;49.092;8.516;2023-01-24T10:51:14;5.80;52.50
12156;DHT22;6141;49.092;8.516;2023-01-24T10:53:43;5.80;53.00
12156;DHT22;6141;49.092;8.516;2023-01-24T10:56:13;5.70;53.70
12156;DHT22;6141;49.092;8.516;2023-01-24T10:58:54;5.80;53.40
12156;DHT22;6141;49.092;8.516;2023-01-24T11:01:32;5.80;53.80
12156;DHT22;6141;49.092;8.516;2023-01-24T11:04:13;5.90;53.30
12156;DHT22;6141;49.092;8.516;2023-01-24T11:06:45;6.00;52.40
12156;DHT22;6141;49.092;8.516;2023-01-24T11:09:15;6.00;52.10
12156;DHT22;6141;49.092;8.516;2023-01-24T11:11:46;6.10;51.50
12156;DHT22;6141;49.092;8.516;2023-01-24T11:14:20;6.20;51.50
12156;DHT22;6141;49.092;8.516;2023-01-24T11:16:50;6.30;51.10
12156;DHT22;6141;49.092;8.516;2023-01-24T11:19:26;6.40;50.70
12156;DHT22;6141;49.092;8.516;2023-01-24T11:21:57;6.50;50.40
12156;DHT22;6141;49.092;8.516;2023-01-24T11:24:27;6.50;49.70
12156;DHT22;6141;49.092;8.516;2023-01-24T11:26:58;6.40;49.00
12156;DHT22;6141;49.092;8.516;2023-01-24T11:29:31;6.30;50.80
12156;DHT22;6141;49.092;8.516;2023-01-24T11:32:16;6.30;50.20
12156;DHT22;6141;49.092;8.516;2023-01-24T11:34:55;6.30;50.40
12156;DHT22;6141;49.092;8.516;2023-01-24T11:37:45;6.30;50.30
12156;DHT22;6141;49.092;8.516;2023-01-24T11:40:24;6.20;50.60
12156;DHT22;6141;49.092;8.516;2023-01-24T11:43:07;6.20;50.40
12156;DHT22;6141;49.092;8.516;2023-01-24T11:45:55;6.00;51.30
12156;DHT22;6141;49.092;8.516;2023-01-24T11:48:32;5.90;51.70
12156;DHT22;6141;49.092;8.516;2023-01-24T11:51:07;6.00;51.80
12156;DHT22;6141;49.092;8.516;2023-01-24T11:56:48;6.20;51.30
12156;DHT22;6141;49.092;8.516;2023-01-24T11:59:39;6.10;50.70
12156;DHT22;6141;49.092;8.516;2023-01-24T12:02:23;6.10;51.50
12156;DHT22;6141;49.092;8.516;2023-01-24T12:08:08;6.30;51.10
12156;DHT22;6141;49.092;8.516;2023-01-24T12:10:48;6.40;50.60
12156;DHT22;6141;49.092;8.516;2023-01-24T12:13:40;6.30;50.90
12156;DHT22;6141;49.092;8.516;2023-01-24T12:16:20;6.30;51.00
12156;DHT22;6141;49.092;8.516;2023-01-24T12:19:06;6.30;51.40
12156;DHT22;6141;49.092;8.516;2023-01-24T12:21:40;6.20;51.10
12156;DHT22;6141;49.092;8.516;2023-01-24T12:24:12;6.10;51.60
12156;DHT22;6141;49.092;8.516;2023-01-24T12:26:45;6.10;51.70
12156;DHT22;6141;49.092;8.516;2023-01-24T12:29:20;6.10;51.90
12156;DHT22;6141;49.092;8.516;2023-01-24T12:31:51;6.20;51.70
12156;DHT22;6141;49.092;8.516;2023-01-24T12:34:39;6.20;51.80
12156;DHT22;6141;49.092;8.516;2023-01-24T12:37:15;6.20;51.90
12156;DHT22;6141;49.092;8.516;2023-01-24T12:39:52;6.10;51.40
12156;DHT22;6141;49.092;8.516;2023-01-24T12:42:29;6.00;52.30
12156;DHT22;6141;49.092;8.516;2023-01-24T12:45:10;6.00;52.60
12156;DHT22;6141;49.092;8.516;2023-01-24T12:47:45;6.00;52.90
12156;DHT22;6141;49.092;8.516;2023-01-24T12:50:22;6.00;52.50
12156;DHT22;6141;49.092;8.516;2023-01-24T12:53:03;6.00;52.30
12156;DHT22;6141;49.092;8.516;2023-01-24T12:55:37;6.00;53.30
12156;DHT22;6141;49.092;8.516;2023-01-24T12:58:15;6.00;52.40
12156;DHT22;6141;49.092;8.516;2023-01-24T13:00:57;6.10;52.20
12156;DHT22;6141;49.092;8.516;2023-01-24T13:03:55;6.10;51.40
12156;DHT22;6141;49.092;8.516;2023-01-24T13:06:35;6.10;51.80
12156;DHT22;6141;49.092;8.516;2023-01-24T13:09:18;6.00;51.80
12156;DHT22;6141;49.092;8.516;2023-01-24T13:11:50;5.90;52.20
12156;DHT22;6141;49.092;8.516;2023-01-24T13:14:22;5.90;52.90
12156;DHT22;6141;49.092;8.516;2023-01-24T13:20:19;6.10;52.60
12156;DHT22;6141;49.092;8.516;2023-01-24T13:23:06;6.20;52.30
12156;DHT22;6141;49.092;8.516;2023-01-24T13:26:08;6.20;51.70
12156;DHT22;6141;49.092;8.516;2023-01-24T13:28:49;6.20;51.90
12156;DHT22;6141;49.092;8.516;2023-01-24T13:31:25;6.10;52.10
12156;DHT22;6141;49.092;8.516;2023-01-24T13:33:59;6.10;52.30
12156;DHT22;6141;49.092;8.516;2023-01-24T13:36:32;6.20;51.60
12156;DHT22;6141;49.092;8.516;2023-01-24T13:39:04;6.10;51.70
12156;DHT22;6141;49.092;8.516;2023-01-24T13:41:35;6.10;52.00
12156;DHT22;6141;49.092;8.516;2023-01-24T13:44:25;6.00;52.30
12156;DHT22;6141;49.092;8.516;2023-01-24T13:46:59;5.90;52.40
12156;DHT22;6141;49.092;8.516;2023-01-24T13:49:45;5.90;52.10
12156;DHT22;6141;49.092;8.516;2023-01-24T13:52:36;5.80;53.00
12156;DHT22;6141;49.092;8.516;2023-01-24T13:58:27;5.80;53.10
12156;DHT22;6141;49.092;8.516;2023-01-24T14:00:57;5.80;52.60
12156;DHT22;6141;49.092;8.516;2023-01-24T14:03:35;5.80;53.10
12156;DHT22;6141;49.092;8.516;2023-01-24T14:06:13;5.90;52.10
12156;DHT22;6141;49.092;8.516;2023-01-24T14:09:01;5.90;52.40
12156;DHT22;6141;49.092;8.516;2023-01-24T14:11:34;5.80;52.70
12156;DHT22;6141;49.092;8.516;2023-01-24T14:14:32;5.80;52.80
12156;DHT22;6141;49.092;8.516;2023-01-24T14:17:04;5.80;52.80
12156;DHT22;6141;49.092;8.516;2023-01-24T14:19:51;5.80;52.50
12156;DHT22;6141;49.092;8.516;2023-01-24T14:22:23;5.80;53.00
12156;DHT22;6141;49.092;8.516;2023-01-24T14:24:55;5.80;53.20
12156;DHT22;6141;49.092;8.516;2023-01-24T14:27:35;5.80;53.10
12156;DHT22;6141;49.092;8.516;2023-01-24T14:30:32;5.80;53.10
12156;DHT22;6141;49.092;8.516;2023-01-24T14:33:06;5.80;53.20
12156;DHT22;6141;49.092;8.516;2023-01-24T14:35:52;5.80;53.20
12156;DHT22;6141;49.092;8.516;2023-01-24T14:38:22;5.80;53.50
12156;DHT22;6141;49.092;8.516;2023-01-24T14:40:52;5.90;52.70
12156;DHT22;6141;49.092;8.516;2023-01-24T14:43:24;5.90;52.60
12156;DHT22;6141;49.092;8.516;2023-01-24T14:45:55;5.90;52.60
12156;DHT22;6141;49.092;8.516;2023-01-24T14:48:24;5.80;53.00
12156;DHT22;6141;49.092;8.516;2023-01-24T14:51:03;5.80;52.90
12156;DHT22;6141;49.092;8.516;2023-01-24T14:53:32;5.90;52.90
12156;DHT22;6141;49.092;8.516;2023-01-24T14:56:02;6.00;52.10
12156;DHT22;6141;49.092;8.516;2023-01-24T14:58:32;6.00;52.20
12156;DHT22;6141;49.092;8.516;2023-01-24T15:01:01;6.00;52.20
12156;DHT22;6141;49.092;8.516;2023-01-24T15:03:32;6.00;52.00
12156;DHT22;6141;49.092;8.516;2023-01-24T15:06:04;6.10;51.40
12156;DHT22;6141;49.092;8.516;2023-01-24T15:08:33;6.10;51.40
12156;DHT22;6141;49.092;8.516;2023-01-24T15:11:04;6.10;51.40
12156;DHT22;6141;49.092;8.516;2023-01-24T15:13:36;6.10;51.50
12156;DHT22;6141;49.092;8.516;2023-01-24T15:16:16;6.10;51.40
12156;DHT22;6141;49.092;8.516;2023-01-24T15:18:48;6.10;51.30
12156;DHT22;6141;49.092;8.516;2023-01-24T15:21:22;6.10;51.20
12156;DHT22;6141;49.092;8.516;2023-01-24T15:23:53;6.00;51.40
12156;DHT22;6141;49.092;8.516;2023-01-24T15:29:41;6.00;51.60
12156;DHT22;6141;49.092;8.516;2023-01-24T15:32:35;5.90;52.00
12156;DHT22;6141;49.092;8.516;2023-01-24T15:35:32;5.90;51.90
12156;DHT22;6141;49.092;8.516;2023-01-24T15:38:23;5.90;52.00
12156;DHT22;6141;49.092;8.516;2023-01-24T15:40:57;5.90;52.30
12156;DHT22;6141;49.092;8.516;2023-01-24T15:43:29;5.90;52.30
12156;DHT22;6141;49.092;8.516;2023-01-24T15:46:23;5.90;51.90
12156;DHT22;6141;49.092;8.516;2023-01-24T15:49:25;6.00;51.80
12156;DHT22;6141;49.092;8.516;2023-01-24T15:52:18;6.00;51.90
12156;DHT22;6141;49.092;8.516;2023-01-24T15:54:48;6.10;51.30
12156;DHT22;6141;49.092;8.516;2023-01-24T15:57:22;6.20;50.60
12156;DHT22;6141;49.092;8.516;2023-01-24T15:59:53;6.10;50.80
12156;DHT22;6141;49.092;8.516;2023-01-24T16:02:23;6.10;50.50
12156;DHT22;6141;49.092;8.516;2023-01-24T16:04:52;6.00;51.00
12156;DHT22;6141;49.092;8.516;2023-01-24T16:07:21;6.00;51.10
12156;DHT22;6141;49.092;8.516;2023-01-24T16:09:50;5.90;51.40
12156;DHT22;6141;49.092;8.516;2023-01-24T16:12:22;6.00;51.40
12156;DHT22;6141;49.092;8.516;2023-01-24T16:14:53;5.90;51.50
12156;DHT22;6141;49.092;8.516;2023-01-24T16:17:36;6.00;51.50
12156;DHT22;6141;49.092;8.516;2023-01-24T16:20:19;6.00;50.90
12156;DHT22;6141;49.092;8.516;2023-01-24T16:22:48;6.00;51.10
12156;DHT22;6141;49.092;8.516;2023-01-24T16:25:17;5.80;51.40
12156;DHT22;6141;49.092;8.516;2023-01-24T16:27:48;5.70;52.00
12156;DHT22;6141;49.092;8.516;2023-01-24T16:30:19;5.60;52.90
12156;DHT22;6141;49.092;8.516;2023-01-24T16:32:50;5.50;53.60
12156;DHT22;6141;49.092;8.516;2023-01-24T16:35:19;5.50;53.60
12156;DHT22;6141;49.092;8.516;2023-01-24T16:37:47;5.60;53.30
12156;DHT22;6141;49.092;8.516;2023-01-24T16:40:17;5.60;53.10
12156;DHT22;6141;49.092;8.516;2023-01-24T16:42:46;5.60;52.80
12156;DHT22;6141;49.092;8.516;2023-01-24T16:45:17;5.70;52.30
12156;DHT22;6141;49.092;8.516;2023-01-24T16:47:46;5.70;52.20
12156;DHT22;6141;49.092;8.516;2023-01-24T16:50:16;5.80;52.00
12156;DHT22;6141;49.092;8.516;2023-01-24T16:52:44;5.80;52.10
12156;DHT22;6141;49.092;8.516;2023-01-24T16:55:13;5.70;52.00
12156;DHT22;6141;49.092;8.516;2023-01-24T16:57:41;5.70;53.30
12156;DHT22;6141;49.092;8.516;2023-01-24T17:00:11;5.70;52.30
12156;DHT22;6141;49.092;8.516;2023-01-24T17:02:42;5.70;52.10
12156;DHT22;6141;49.092;8.516;2023-01-24T17:05:11;5.70;52.20